sensor_id;sensor_type;location;lat;lon;timestamp;P1;durP1;ratioP1;P2;durP2;ratioP2
1380;SDS011;684;48.342;10.096;2023-07-13T00:00:35;12.60;;;9.03;;
1380;SDS011;684;48.342;10.096;2023-07-13T00:03:02;18.00;;;9.07;;
1380;SDS011;684;48.342;10.096;2023-07-13T00:05:29;15.77;;;10.17;;
1380;SDS011;684;48.342;10.096;2023-07-13T00:07:57;17.47;;;9.23;;
1380;SDS011;684;48.342;10.096;2023-07-13T00:10:23;16.10;;;9.57;;
1380;SDS011;684;48.342;10.096;2023-07-13T00:12:51;16.43;;;11.30;;
1380;SDS011;684;48.342;10.096;2023-07-13T00:15:21;14.40;;;9.80;;
1380;SDS011;684;48.342;10.096;2023-07-13T00:17:55;16.53;;;10.70;;
1380;SDS011;684;48.342;10.096;2023-07-13T00:20:22;16.43;;;10.33;;
1380;SDS011;684;48.342;10.096;2023-07-13T00:22:50;16.90;;;11.17;;
1380;SDS011;684;48.342;10.096;2023-07-13T00:25:18;22.43;;;10.93;;
1380;SDS011;684;48.342;10.096;2023-07-13T00:27:46;16.53;;;10.80;;
1380;SDS011;684;48.342;10.096;2023-07-13T00:30:14;20.63;;;11.70;;
1380;SDS011;684;48.342;10.096;2023-07-13T00:32:43;16.77;;;11.40;;
1380;SDS011;684;48.342;10.096;2023-07-13T00:35:10;14.20;;;9.47;;
1380;SDS011;684;48.342;10.096;2023-07-13T00:37:39;17.33;;;9.50;;
1380;SDS011;684;48.342;10.096;2023-07-13T00:40:06;16.00;;;8.23;;
1380;SDS011;684;48.342;10.096;2023-07-13T00:42:34;12.60;;;7.73;;
1380;SDS011;684;48.342;10.096;2023-07-13T00:45:01;10.47;;;7.83;;
1380;SDS011;684;48.342;10.096;2023-07-13T00:47:30;11.83;;;8.00;;
1380;SDS011;684;48.342;10.096;2023-07-13T00:49:58;10.90;;;8.10;;
1380;SDS011;684;48.342;10.096;2023-07-13T00:52:25;12.37;;;7.63;;
1380;SDS011;684;48.342;10.096;2023-07-13T00:54:53;11.60;;;6.40;;
1380;SDS011;684;48.342;10.096;2023-07-13T00:57:20;10.43;;;6.10;;
1380;SDS011;684;48.342;10.096;2023-07-13T00:59:48;10.93;;;6.20;;
1380;SDS011;684;48.342;10.096;2023-07-13T01:02:18;10.43;;;5.73;;
1380;SDS011;684;48.342;10.096;2023-07-13T01:04:46;10.20;;;5.80;;
1380;SDS011;684;48.342;10.096;2023-07-13T01:07:14;7.93;;;4.93;;
1380;SDS011;684;48.342;10.096;2023-07-13T01:09:41;9.80;;;5.60;;
1380;SDS011;684;48.342;10.096;2023-07-13T01:12:10;8.10;;;5.03;;
1380;SDS011;684;48.342;10.096;2023-07-13T01:14:38;10.90;;;5.97;;
1380;SDS011;684;48.342;10.096;2023-07-13T01:17:05;8.27;;;5.53;;
1380;SDS011;684;48.342;10.096;2023-07-13T01:19:36;12.57;;;5.67;;
1380;SDS011;684;48.342;10.096;2023-07-13T01:22:06;14.07;;;6.40;;
1380;SDS011;684;48.342;10.096;2023-07-13T01:24:36;8.93;;;5.40;;
1380;SDS011;684;48.342;10.096;2023-07-13T01:27:04;9.57;;;5.83;;
1380;SDS011;684;48.342;10.096;2023-07-13T01:29:32;10.37;;;5.03;;
1380;SDS011;684;48.342;10.096;2023-07-13T01:32:07;10.30;;;5.10;;
1380;SDS011;684;48.342;10.096;2023-07-13T01:34:35;7.60;;;4.63;;
1380;SDS011;684;48.342;10.096;2023-07-13T01:37:03;10.90;;;5.77;;
1380;SDS011;684;48.342;10.096;2023-07-13T01:39:31;9.97;;;5.17;;
1380;SDS011;684;48.342;10.096;2023-07-13T01:41:58;11.13;;;4.90;;
1380;SDS011;684;48.342;10.096;2023-07-13T01:44:25;10.73;;;4.90;;
1380;SDS011;684;48.342;10.096;2023-07-13T01:46:52;8.93;;;5.17;;
1380;SDS011;684;48.342;10.096;2023-07-13T01:49:19;8.17;;;4.50;;
1380;SDS011;684;48.342;10.096;2023-07-13T01:51:45;10.50;;;4.50;;
1380;SDS011;684;48.342;10.096;2023-07-13T01:54:12;9.80;;;5.50;;
1380;SDS011;684;48.342;10.096;2023-07-13T01:56:40;9.80;;;5.40;;
1380;SDS011;684;48.342;10.096;2023-07-13T01:59:07;10.07;;;5.20;;
1380;SDS011;684;48.342;10.096;2023-07-13T02:01:34;10.27;;;4.70;;
1380;SDS011;684;48.342;10.096;2023-07-13T02:04:01;9.37;;;4.93;;
1380;SDS011;684;48.342;10.096;2023-07-13T02:06:28;6.07;;;3.60;;
1380;SDS011;684;48.342;10.096;2023-07-13T02:08:55;7.53;;;4.20;;
1380;SDS011;684;48.342;10.096;2023-07-13T02:11:22;11.03;;;4.40;;
1380;SDS011;684;48.342;10.096;2023-07-13T02:13:51;10.00;;;4.20;;
1380;SDS011;684;48.342;10.096;2023-07-13T02:16:18;8.60;;;3.97;;
1380;SDS011;684;48.342;10.096;2023-07-13T02:18:44;8.50;;;3.50;;
1380;SDS011;684;48.342;10.096;2023-07-13T02:21:11;9.30;;;3.33;;
1380;SDS011;684;48.342;10.096;2023-07-13T02:23:38;6.47;;;3.40;;
1380;SDS011;684;48.342;10.096;2023-07-13T02:26:04;6.40;;;3.40;;
1380;SDS011;684;48.342;10.096;2023-07-13T02:28:31;7.97;;;4.00;;
1380;SDS011;684;48.342;10.096;2023-07-13T02:31:05;10.33;;;4.57;;
1380;SDS011;684;48.342;10.096;2023-07-13T02:33:32;6.93;;;3.43;;
1380;SDS011;684;48.342;10.096;2023-07-13T02:35:59;7.70;;;3.63;;
1380;SDS011;684;48.342;10.096;2023-07-13T02:38:26;10.87;;;3.80;;
1380;SDS011;684;48.342;10.096;2023-07-13T02:40:53;9.60;;;3.93;;
1380;SDS011;684;48.342;10.096;2023-07-13T02:43:19;10.40;;;4.03;;
1380;SDS011;684;48.342;10.096;2023-07-13T02:45:46;9.20;;;3.80;;
1380;SDS011;684;48.342;10.096;2023-07-13T02:48:14;7.90;;;3.90;;
1380;SDS011;684;48.342;10.096;2023-07-13T02:50:41;7.10;;;3.30;;
1380;SDS011;684;48.342;10.096;2023-07-13T02:53:08;12.83;;;3.50;;
1380;SDS011;684;48.342;10.096;2023-07-13T02:55:34;8.07;;;3.87;;
1380;SDS011;684;48.342;10.096;2023-07-13T02:58:01;6.43;;;3.23;;
1380;SDS011;684;48.342;10.096;2023-07-13T03:00:28;7.73;;;3.70;;
1380;SDS011;684;48.342;10.096;2023-07-13T03:02:55;11.37;;;4.10;;
1380;SDS011;684;48.342;10.096;2023-07-13T03:05:24;10.17;;;3.80;;
1380;SDS011;684;48.342;10.096;2023-07-13T03:07:51;7.50;;;3.33;;
1380;SDS011;684;48.342;10.096;2023-07-13T03:10:18;9.10;;;3.67;;
1380;SDS011;684;48.342;10.096;2023-07-13T03:12:44;7.80;;;4.37;;
1380;SDS011;684;48.342;10.096;2023-07-13T03:15:11;9.90;;;4.10;;
1380;SDS011;684;48.342;10.096;2023-07-13T03:17:38;7.13;;;3.10;;
1380;SDS011;684;48.342;10.096;2023-07-13T03:20:05;7.63;;;3.40;;
1380;SDS011;684;48.342;10.096;2023-07-13T03:22:35;6.70;;;3.13;;
1380;SDS011;684;48.342;10.096;2023-07-13T03:25:02;6.37;;;3.07;;
1380;SDS011;684;48.342;10.096;2023-07-13T03:27:29;10.43;;;3.47;;
1380;SDS011;684;48.342;10.096;2023-07-13T03:29:56;8.50;;;3.40;;
1380;SDS011;684;48.342;10.096;2023-07-13T03:32:23;8.77;;;3.90;;
1380;SDS011;684;48.342;10.096;2023-07-13T03:34:49;6.83;;;3.30;;
1380;SDS011;684;48.342;10.096;2023-07-13T03:37:16;7.33;;;2.80;;
1380;SDS011;684;48.342;10.096;2023-07-13T03:39:44;7.73;;;3.50;;
1380;SDS011;684;48.342;10.096;2023-07-13T03:42:11;6.77;;;2.93;;
1380;SDS011;684;48.342;10.096;2023-07-13T03:44:38;6.30;;;3.00;;
1380;SDS011;684;48.342;10.096;2023-07-13T03:47:05;8.70;;;3.40;;
1380;SDS011;684;48.342;10.096;2023-07-13T03:49:33;8.50;;;3.80;;
1380;SDS011;684;48.342;10.096;2023-07-13T03:52:00;10.83;;;3.97;;
1380;SDS011;684;48.342;10.096;2023-07-13T03:54:27;8.87;;;3.50;;
1380;SDS011;684;48.342;10.096;2023-07-13T03:56:55;6.80;;;2.80;;
1380;SDS011;684;48.342;10.096;2023-07-13T03:59:22;7.47;;;3.27;;
1380;SDS011;684;48.342;10.096;2023-07-13T04:01:49;11.80;;;3.27;;
1380;SDS011;684;48.342;10.096;2023-07-13T04:04:16;7.10;;;2.97;;
1380;SDS011;684;48.342;10.096;2023-07-13T04:06:42;6.90;;;2.87;;
1380;SDS011;684;48.342;10.096;2023-07-13T04:09:09;11.83;;;3.20;;
1380;SDS011;684;48.342;10.096;2023-07-13T04:11:36;8.30;;;3.47;;
1380;SDS011;684;48.342;10.096;2023-07-13T04:14:04;7.10;;;3.10;;
1380;SDS011;684;48.342;10.096;2023-07-13T04:16:31;6.93;;;2.93;;
1380;SDS011;684;48.342;10.096;2023-07-13T04:18:57;8.83;;;3.47;;
1380;SDS011;684;48.342;10.096;2023-07-13T04:21:25;12.37;;;3.40;;
1380;SDS011;684;48.342;10.096;2023-07-13T04:23:53;7.80;;;3.20;;
1380;SDS011;684;48.342;10.096;2023-07-13T04:26:20;7.23;;;3.40;;
1380;SDS011;684;48.342;10.096;2023-07-13T04:28:48;10.37;;;3.33;;
1380;SDS011;684;48.342;10.096;2023-07-13T04:31:16;8.97;;;3.23;;
1380;SDS011;684;48.342;10.096;2023-07-13T04:33:43;11.87;;;3.73;;
1380;SDS011;684;48.342;10.096;2023-07-13T04:36:10;8.17;;;3.17;;
1380;SDS011;684;48.342;10.096;2023-07-13T04:38:37;7.00;;;2.83;;
1380;SDS011;684;48.342;10.096;2023-07-13T04:41:05;16.30;;;3.50;;
1380;SDS011;684;48.342;10.096;2023-07-13T04:43:32;7.07;;;2.97;;
1380;SDS011;684;48.342;10.096;2023-07-13T04:46:02;6.43;;;3.30;;
1380;SDS011;684;48.342;10.096;2023-07-13T04:48:31;7.90;;;2.90;;
1380;SDS011;684;48.342;10.096;2023-07-13T04:50:58;8.53;;;3.10;;
1380;SDS011;684;48.342;10.096;2023-07-13T04:53:25;13.47;;;3.40;;
1380;SDS011;684;48.342;10.096;2023-07-13T04:55:52;7.77;;;2.67;;
1380;SDS011;684;48.342;10.096;2023-07-13T04:58:19;8.57;;;2.70;;
1380;SDS011;684;48.342;10.096;2023-07-13T05:00:46;12.37;;;3.00;;
1380;SDS011;684;48.342;10.096;2023-07-13T05:03:13;9.80;;;3.00;;
1380;SDS011;684;48.342;10.096;2023-07-13T05:05:41;10.30;;;2.93;;
1380;SDS011;684;48.342;10.096;2023-07-13T05:08:08;8.43;;;3.23;;
1380;SDS011;684;48.342;10.096;2023-07-13T05:10:34;8.13;;;3.00;;
1380;SDS011;684;48.342;10.096;2023-07-13T05:13:02;11.93;;;3.80;;
1380;SDS011;684;48.342;10.096;2023-07-13T05:15:28;9.17;;;2.43;;
1380;SDS011;684;48.342;10.096;2023-07-13T05:17:55;8.93;;;3.03;;
1380;SDS011;684;48.342;10.096;2023-07-13T05:20:22;6.63;;;2.83;;
1380;SDS011;684;48.342;10.096;2023-07-13T05:22:50;8.77;;;2.80;;
1380;SDS011;684;48.342;10.096;2023-07-13T05:25:16;5.70;;;2.67;;
1380;SDS011;684;48.342;10.096;2023-07-13T05:27:44;8.67;;;3.10;;
1380;SDS011;684;48.342;10.096;2023-07-13T05:30:12;7.40;;;2.70;;
1380;SDS011;684;48.342;10.096;2023-07-13T05:32:39;9.43;;;3.30;;
1380;SDS011;684;48.342;10.096;2023-07-13T05:35:06;11.60;;;3.53;;
1380;SDS011;684;48.342;10.096;2023-07-13T05:37:33;9.57;;;3.40;;
1380;SDS011;684;48.342;10.096;2023-07-13T05:40:01;7.47;;;3.27;;
1380;SDS011;684;48.342;10.096;2023-07-13T05:42:29;9.63;;;3.40;;
1380;SDS011;684;48.342;10.096;2023-07-13T05:44:57;8.43;;;3.20;;
1380;SDS011;684;48.342;10.096;2023-07-13T05:47:24;10.50;;;2.80;;
1380;SDS011;684;48.342;10.096;2023-07-13T05:49:50;8.47;;;3.27;;
1380;SDS011;684;48.342;10.096;2023-07-13T05:52:17;8.17;;;3.07;;
1380;SDS011;684;48.342;10.096;2023-07-13T05:54:44;9.20;;;3.20;;
1380;SDS011;684;48.342;10.096;2023-07-13T05:57:12;6.63;;;2.80;;
1380;SDS011;684;48.342;10.096;2023-07-13T05:59:38;6.87;;;2.87;;
1380;SDS011;684;48.342;10.096;2023-07-13T06:02:05;7.87;;;3.00;;
1380;SDS011;684;48.342;10.096;2023-07-13T06:04:34;7.40;;;3.70;;
1380;SDS011;684;48.342;10.096;2023-07-13T06:07:01;10.20;;;2.83;;
1380;SDS011;684;48.342;10.096;2023-07-13T06:09:27;7.00;;;2.30;;
1380;SDS011;684;48.342;10.096;2023-07-13T06:11:54;8.60;;;3.53;;
1380;SDS011;684;48.342;10.096;2023-07-13T06:14:22;6.80;;;2.97;;
1380;SDS011;684;48.342;10.096;2023-07-13T06:16:49;7.77;;;3.40;;
1380;SDS011;684;48.342;10.096;2023-07-13T06:19:16;9.67;;;2.87;;
1380;SDS011;684;48.342;10.096;2023-07-13T06:21:42;6.43;;;2.90;;
1380;SDS011;684;48.342;10.096;2023-07-13T06:24:10;8.37;;;2.50;;
1380;SDS011;684;48.342;10.096;2023-07-13T06:26:37;9.40;;;2.50;;
1380;SDS011;684;48.342;10.096;2023-07-13T06:29:03;6.10;;;2.67;;
1380;SDS011;684;48.342;10.096;2023-07-13T06:31:32;10.23;;;2.80;;
1380;SDS011;684;48.342;10.096;2023-07-13T06:33:58;7.13;;;2.60;;
1380;SDS011;684;48.342;10.096;2023-07-13T06:36:25;6.47;;;2.50;;
1380;SDS011;684;48.342;10.096;2023-07-13T06:38:52;9.03;;;3.03;;
1380;SDS011;684;48.342;10.096;2023-07-13T06:41:18;13.30;;;2.40;;
1380;SDS011;684;48.342;10.096;2023-07-13T06:43:47;5.87;;;2.10;;
1380;SDS011;684;48.342;10.096;2023-07-13T06:46:13;7.10;;;2.40;;
1380;SDS011;684;48.342;10.096;2023-07-13T06:48:41;9.03;;;2.97;;
1380;SDS011;684;48.342;10.096;2023-07-13T06:51:08;6.70;;;2.20;;
1380;SDS011;684;48.342;10.096;2023-07-13T06:53:35;6.27;;;2.20;;
1380;SDS011;684;48.342;10.096;2023-07-13T06:56:02;7.07;;;2.73;;
1380;SDS011;684;48.342;10.096;2023-07-13T06:58:29;6.13;;;2.40;;
1380;SDS011;684;48.342;10.096;2023-07-13T07:00:55;7.83;;;2.33;;
1380;SDS011;684;48.342;10.096;2023-07-13T07:03:22;7.40;;;2.30;;
1380;SDS011;684;48.342;10.096;2023-07-13T07:05:50;6.10;;;2.50;;
1380;SDS011;684;48.342;10.096;2023-07-13T07:08:17;11.37;;;2.20;;
1380;SDS011;684;48.342;10.096;2023-07-13T07:10:43;6.53;;;1.97;;
1380;SDS011;684;48.342;10.096;2023-07-13T07:13:11;7.90;;;2.70;;
1380;SDS011;684;48.342;10.096;2023-07-13T07:15:38;7.73;;;2.20;;
1380;SDS011;684;48.342;10.096;2023-07-13T07:18:05;5.80;;;2.10;;
1380;SDS011;684;48.342;10.096;2023-07-13T07:20:32;8.60;;;2.10;;
1380;SDS011;684;48.342;10.096;2023-07-13T07:23:00;6.33;;;2.17;;
1380;SDS011;684;48.342;10.096;2023-07-13T07:25:26;7.20;;;2.03;;
1380;SDS011;684;48.342;10.096;2023-07-13T07:27:56;7.90;;;2.17;;
1380;SDS011;684;48.342;10.096;2023-07-13T07:30:23;6.73;;;2.50;;
1380;SDS011;684;48.342;10.096;2023-07-13T07:32:50;7.77;;;2.40;;
1380;SDS011;684;48.342;10.096;2023-07-13T07:35:17;10.10;;;2.47;;
1380;SDS011;684;48.342;10.096;2023-07-13T07:37:43;5.40;;;2.33;;
1380;SDS011;684;48.342;10.096;2023-07-13T07:40:12;8.17;;;2.40;;
1380;SDS011;684;48.342;10.096;2023-07-13T07:42:38;5.33;;;2.07;;
1380;SDS011;684;48.342;10.096;2023-07-13T07:45:05;5.47;;;2.00;;
1380;SDS011;684;48.342;10.096;2023-07-13T07:47:32;5.57;;;1.97;;
1380;SDS011;684;48.342;10.096;2023-07-13T07:49:59;8.50;;;2.13;;
1380;SDS011;684;48.342;10.096;2023-07-13T07:52:26;4.33;;;1.70;;
1380;SDS011;684;48.342;10.096;2023-07-13T07:54:52;5.00;;;2.13;;
1380;SDS011;684;48.342;10.096;2023-07-13T07:57:20;7.90;;;2.10;;
1380;SDS011;684;48.342;10.096;2023-07-13T07:59:47;6.80;;;2.27;;
1380;SDS011;684;48.342;10.096;2023-07-13T08:02:14;5.27;;;2.00;;
1380;SDS011;684;48.342;10.096;2023-07-13T08:04:41;6.70;;;1.80;;
1380;SDS011;684;48.342;10.096;2023-07-13T08:07:08;6.27;;;2.30;;
1380;SDS011;684;48.342;10.096;2023-07-13T08:09:35;6.17;;;2.53;;
1380;SDS011;684;48.342;10.096;2023-07-13T08:12:02;4.30;;;1.90;;
1380;SDS011;684;48.342;10.096;2023-07-13T08:14:30;6.10;;;1.60;;
1380;SDS011;684;48.342;10.096;2023-07-13T08:16:57;5.80;;;2.47;;
1380;SDS011;684;48.342;10.096;2023-07-13T08:19:24;7.80;;;2.20;;
1380;SDS011;684;48.342;10.096;2023-07-13T08:21:51;8.90;;;1.83;;
1380;SDS011;684;48.342;10.096;2023-07-13T08:24:17;5.90;;;2.10;;
1380;SDS011;684;48.342;10.096;2023-07-13T08:26:44;7.87;;;2.07;;
1380;SDS011;684;48.342;10.096;2023-07-13T08:29:11;6.57;;;2.00;;
1380;SDS011;684;48.342;10.096;2023-07-13T08:31:39;6.30;;;2.27;;
1380;SDS011;684;48.342;10.096;2023-07-13T08:34:06;5.63;;;2.40;;
1380;SDS011;684;48.342;10.096;2023-07-13T08:36:36;5.60;;;1.77;;
1380;SDS011;684;48.342;10.096;2023-07-13T08:39:02;10.73;;;2.13;;
1380;SDS011;684;48.342;10.096;2023-07-13T08:41:31;6.00;;;1.87;;
1380;SDS011;684;48.342;10.096;2023-07-13T08:43:59;7.47;;;1.90;;
1380;SDS011;684;48.342;10.096;2023-07-13T08:46:29;5.53;;;1.67;;
1380;SDS011;684;48.342;10.096;2023-07-13T08:49:03;5.93;;;1.97;;
1380;SDS011;684;48.342;10.096;2023-07-13T08:51:35;5.03;;;1.67;;
1380;SDS011;684;48.342;10.096;2023-07-13T08:54:10;8.63;;;2.33;;
1380;SDS011;684;48.342;10.096;2023-07-13T08:56:44;6.17;;;2.20;;
1380;SDS011;684;48.342;10.096;2023-07-13T08:59:13;7.13;;;2.30;;
1380;SDS011;684;48.342;10.096;2023-07-13T09:01:52;6.60;;;2.30;;
1380;SDS011;684;48.342;10.096;2023-07-13T09:04:30;6.63;;;2.37;;
1380;SDS011;684;48.342;10.096;2023-07-13T09:07:03;9.87;;;2.50;;
1380;SDS011;684;48.342;10.096;2023-07-13T09:09:39;5.97;;;1.60;;
1380;SDS011;684;48.342;10.096;2023-07-13T09:12:14;6.30;;;2.27;;
1380;SDS011;684;48.342;10.096;2023-07-13T09:14:47;5.10;;;1.50;;
1380;SDS011;684;48.342;10.096;2023-07-13T09:17:17;8.40;;;2.20;;
1380;SDS011;684;48.342;10.096;2023-07-13T09:19:49;5.03;;;1.60;;
1380;SDS011;684;48.342;10.096;2023-07-13T09:22:23;4.93;;;1.73;;
1380;SDS011;684;48.342;10.096;2023-07-13T09:24:55;5.10;;;1.47;;
1380;SDS011;684;48.342;10.096;2023-07-13T09:27:27;4.63;;;1.70;;
1380;SDS011;684;48.342;10.096;2023-07-13T09:29:58;4.27;;;1.70;;
1380;SDS011;684;48.342;10.096;2023-07-13T09:32:31;6.40;;;1.33;;
1380;SDS011;684;48.342;10.096;2023-07-13T09:35:00;5.57;;;1.90;;
1380;SDS011;684;48.342;10.096;2023-07-13T09:37:28;8.17;;;1.50;;
1380;SDS011;684;48.342;10.096;2023-07-13T09:39:58;5.40;;;1.87;;
1380;SDS011;684;48.342;10.096;2023-07-13T09:42:29;4.50;;;1.40;;
1380;SDS011;684;48.342;10.096;2023-07-13T09:44:58;6.43;;;1.53;;
1380;SDS011;684;48.342;10.096;2023-07-13T09:47:28;4.43;;;1.50;;
1380;SDS011;684;48.342;10.096;2023-07-13T09:49:57;6.53;;;1.70;;
1380;SDS011;684;48.342;10.096;2023-07-13T09:52:26;5.97;;;1.43;;
1380;SDS011;684;48.342;10.096;2023-07-13T09:54:58;4.90;;;1.40;;
1380;SDS011;684;48.342;10.096;2023-07-13T09:57:25;6.80;;;1.90;;
1380;SDS011;684;48.342;10.096;2023-07-13T09:59:54;5.60;;;1.37;;
1380;SDS011;684;48.342;10.096;2023-07-13T10:04:57;10.63;;;2.40;;
1380;SDS011;684;48.342;10.096;2023-07-13T10:07:27;5.23;;;1.60;;
1380;SDS011;684;48.342;10.096;2023-07-13T10:09:54;4.57;;;1.37;;
1380;SDS011;684;48.342;10.096;2023-07-13T10:12:21;4.03;;;1.30;;
1380;SDS011;684;48.342;10.096;2023-07-13T10:14:50;6.00;;;1.80;;
1380;SDS011;684;48.342;10.096;2023-07-13T10:17:20;5.20;;;1.00;;
1380;SDS011;684;48.342;10.096;2023-07-13T10:19:55;6.93;;;1.70;;
1380;SDS011;684;48.342;10.096;2023-07-13T10:22:27;5.73;;;1.50;;
1380;SDS011;684;48.342;10.096;2023-07-13T10:25:02;5.07;;;1.50;;
1380;SDS011;684;48.342;10.096;2023-07-13T10:27:38;8.07;;;2.03;;
1380;SDS011;684;48.342;10.096;2023-07-13T10:30:12;5.30;;;1.37;;
1380;SDS011;684;48.342;10.096;2023-07-13T10:32:44;5.20;;;1.40;;
1380;SDS011;684;48.342;10.096;2023-07-13T10:35:13;6.53;;;1.80;;
1380;SDS011;684;48.342;10.096;2023-07-13T10:37:45;4.90;;;1.67;;
1380;SDS011;684;48.342;10.096;2023-07-13T10:40:17;6.10;;;1.60;;
1380;SDS011;684;48.342;10.096;2023-07-13T10:42:48;7.80;;;2.03;;
1380;SDS011;684;48.342;10.096;2023-07-13T10:45:18;5.20;;;1.60;;
1380;SDS011;684;48.342;10.096;2023-07-13T10:47:47;9.17;;;2.07;;
1380;SDS011;684;48.342;10.096;2023-07-13T10:50:16;6.60;;;1.57;;
1380;SDS011;684;48.342;10.096;2023-07-13T10:52:48;5.60;;;1.30;;
1380;SDS011;684;48.342;10.096;2023-07-13T10:55:32;7.50;;;2.20;;
1380;SDS011;684;48.342;10.096;2023-07-13T10:58:01;8.37;;;2.37;;
1380;SDS011;684;48.342;10.096;2023-07-13T11:00:42;4.73;;;1.47;;
1380;SDS011;684;48.342;10.096;2023-07-13T11:03:13;5.37;;;1.57;;
1380;SDS011;684;48.342;10.096;2023-07-13T11:05:41;4.30;;;1.60;;
1380;SDS011;684;48.342;10.096;2023-07-13T11:08:16;6.80;;;2.17;;
1380;SDS011;684;48.342;10.096;2023-07-13T11:10:51;6.77;;;1.70;;
1380;SDS011;684;48.342;10.096;2023-07-13T11:13:39;4.50;;;1.70;;
1380;SDS011;684;48.342;10.096;2023-07-13T11:16:37;7.80;;;2.10;;
1380;SDS011;684;48.342;10.096;2023-07-13T11:22:13;6.37;;;1.77;;
1380;SDS011;684;48.342;10.096;2023-07-13T11:27:50;6.90;;;2.23;;
1380;SDS011;684;48.342;10.096;2023-07-13T11:30:21;5.77;;;2.10;;
1380;SDS011;684;48.342;10.096;2023-07-13T11:33:07;10.43;;;2.07;;
1380;SDS011;684;48.342;10.096;2023-07-13T11:35:40;4.67;;;1.67;;
1380;SDS011;684;48.342;10.096;2023-07-13T11:38:12;5.23;;;2.03;;
1380;SDS011;684;48.342;10.096;2023-07-13T11:40:42;5.90;;;1.80;;
1380;SDS011;684;48.342;10.096;2023-07-13T11:43:14;4.60;;;1.60;;
1380;SDS011;684;48.342;10.096;2023-07-13T11:45:42;8.20;;;2.00;;
1380;SDS011;684;48.342;10.096;2023-07-13T11:48:23;5.00;;;2.00;;
1380;SDS011;684;48.342;10.096;2023-07-13T11:50:53;5.90;;;1.90;;
1380;SDS011;684;48.342;10.096;2023-07-13T11:53:24;5.03;;;1.80;;
1380;SDS011;684;48.342;10.096;2023-07-13T11:55:54;6.20;;;2.13;;
1380;SDS011;684;48.342;10.096;2023-07-13T11:58:23;5.90;;;1.70;;
1380;SDS011;684;48.342;10.096;2023-07-13T12:00:53;5.63;;;2.40;;
1380;SDS011;684;48.342;10.096;2023-07-13T12:03:22;8.63;;;2.30;;
1380;SDS011;684;48.342;10.096;2023-07-13T12:06:00;8.03;;;1.83;;
1380;SDS011;684;48.342;10.096;2023-07-13T12:08:30;5.60;;;1.90;;
1380;SDS011;684;48.342;10.096;2023-07-13T12:11:17;5.70;;;2.03;;
1380;SDS011;684;48.342;10.096;2023-07-13T12:13:46;5.20;;;1.90;;
1380;SDS011;684;48.342;10.096;2023-07-13T12:16:15;8.57;;;2.00;;
1380;SDS011;684;48.342;10.096;2023-07-13T12:18:43;4.43;;;1.43;;
1380;SDS011;684;48.342;10.096;2023-07-13T12:21:13;7.00;;;2.20;;
1380;SDS011;684;48.342;10.096;2023-07-13T12:23:44;4.70;;;1.87;;
1380;SDS011;684;48.342;10.096;2023-07-13T12:26:14;6.07;;;2.07;;
1380;SDS011;684;48.342;10.096;2023-07-13T12:28:43;6.33;;;1.60;;
1380;SDS011;684;48.342;10.096;2023-07-13T12:31:24;8.00;;;1.93;;
1380;SDS011;684;48.342;10.096;2023-07-13T12:33:56;5.73;;;1.67;;
1380;SDS011;684;48.342;10.096;2023-07-13T12:36:24;7.90;;;2.00;;
1380;SDS011;684;48.342;10.096;2023-07-13T12:38:52;4.70;;;1.90;;
1380;SDS011;684;48.342;10.096;2023-07-13T12:41:19;7.23;;;1.80;;
1380;SDS011;684;48.342;10.096;2023-07-13T12:43:48;5.00;;;1.50;;
1380;SDS011;684;48.342;10.096;2023-07-13T12:46:16;4.20;;;1.50;;
1380;SDS011;684;48.342;10.096;2023-07-13T12:48:47;5.40;;;1.67;;
1380;SDS011;684;48.342;10.096;2023-07-13T12:51:15;9.20;;;1.90;;
1380;SDS011;684;48.342;10.096;2023-07-13T12:53:43;4.67;;;1.80;;
1380;SDS011;684;48.342;10.096;2023-07-13T12:56:18;6.60;;;2.20;;
1380;SDS011;684;48.342;10.096;2023-07-13T12:58:48;6.33;;;1.90;;
1380;SDS011;684;48.342;10.096;2023-07-13T13:01:19;5.43;;;1.90;;
1380;SDS011;684;48.342;10.096;2023-07-13T13:03:49;4.37;;;1.80;;
1380;SDS011;684;48.342;10.096;2023-07-13T13:06:20;6.53;;;2.10;;
1380;SDS011;684;48.342;10.096;2023-07-13T13:08:49;6.00;;;1.80;;
1380;SDS011;684;48.342;10.096;2023-07-13T13:11:18;6.33;;;2.13;;
1380;SDS011;684;48.342;10.096;2023-07-13T13:13:46;8.40;;;1.90;;
1380;SDS011;684;48.342;10.096;2023-07-13T13:16:17;7.40;;;1.83;;
1380;SDS011;684;48.342;10.096;2023-07-13T13:18:48;5.50;;;2.07;;
1380;SDS011;684;48.342;10.096;2023-07-13T13:21:16;5.40;;;2.10;;
1380;SDS011;684;48.342;10.096;2023-07-13T13:23:44;8.40;;;2.00;;
1380;SDS011;684;48.342;10.096;2023-07-13T13:26:11;7.67;;;1.63;;
1380;SDS011;684;48.342;10.096;2023-07-13T13:28:39;6.90;;;1.73;;
1380;SDS011;684;48.342;10.096;2023-07-13T13:31:07;5.30;;;1.90;;
1380;SDS011;684;48.342;10.096;2023-07-13T13:33:38;6.27;;;2.03;;
1380;SDS011;684;48.342;10.096;2023-07-13T13:36:13;5.77;;;2.00;;
1380;SDS011;684;48.342;10.096;2023-07-13T13:38:42;7.80;;;1.70;;
1380;SDS011;684;48.342;10.096;2023-07-13T13:41:09;8.50;;;1.83;;
1380;SDS011;684;48.342;10.096;2023-07-13T13:43:38;6.20;;;1.90;;
1380;SDS011;684;48.342;10.096;2023-07-13T13:46:11;4.97;;;1.63;;
1380;SDS011;684;48.342;10.096;2023-07-13T13:48:41;4.27;;;1.90;;
1380;SDS011;684;48.342;10.096;2023-07-13T13:51:14;4.77;;;1.50;;
1380;SDS011;684;48.342;10.096;2023-07-13T13:53:42;5.03;;;1.80;;
1380;SDS011;684;48.342;10.096;2023-07-13T13:56:09;5.30;;;1.73;;
1380;SDS011;684;48.342;10.096;2023-07-13T13:58:36;5.33;;;2.17;;
1380;SDS011;684;48.342;10.096;2023-07-13T14:01:02;6.03;;;1.73;;
1380;SDS011;684;48.342;10.096;2023-07-13T14:03:33;6.17;;;1.90;;
1380;SDS011;684;48.342;10.096;2023-07-13T14:06:00;9.00;;;2.70;;
1380;SDS011;684;48.342;10.096;2023-07-13T14:08:28;7.47;;;2.30;;
1380;SDS011;684;48.342;10.096;2023-07-13T14:10:55;38.70;;;5.93;;
1380;SDS011;684;48.342;10.096;2023-07-13T14:13:25;360.63;;;33.67;;
1380;SDS011;684;48.342;10.096;2023-07-13T14:15:54;6.23;;;1.63;;
1380;SDS011;684;48.342;10.096;2023-07-13T14:18:21;5.67;;;1.80;;
1380;SDS011;684;48.342;10.096;2023-07-13T14:20:49;6.10;;;2.20;;
1380;SDS011;684;48.342;10.096;2023-07-13T14:23:18;7.00;;;1.93;;
1380;SDS011;684;48.342;10.096;2023-07-13T14:25:46;7.23;;;1.80;;
1380;SDS011;684;48.342;10.096;2023-07-13T14:28:21;5.10;;;1.90;;
1380;SDS011;684;48.342;10.096;2023-07-13T14:30:49;5.87;;;1.83;;
1380;SDS011;684;48.342;10.096;2023-07-13T14:33:16;8.87;;;1.80;;
1380;SDS011;684;48.342;10.096;2023-07-13T14:35:44;5.43;;;2.40;;
1380;SDS011;684;48.342;10.096;2023-07-13T14:38:11;7.03;;;1.60;;
1380;SDS011;684;48.342;10.096;2023-07-13T14:40:41;5.57;;;2.00;;
1380;SDS011;684;48.342;10.096;2023-07-13T14:43:11;5.40;;;2.10;;
1380;SDS011;684;48.342;10.096;2023-07-13T14:45:39;8.83;;;2.50;;
1380;SDS011;684;48.342;10.096;2023-07-13T14:48:14;7.43;;;1.90;;
1380;SDS011;684;48.342;10.096;2023-07-13T14:50:44;5.37;;;2.17;;
1380;SDS011;684;48.342;10.096;2023-07-13T14:53:11;6.73;;;1.83;;
1380;SDS011;684;48.342;10.096;2023-07-13T14:55:38;8.10;;;2.13;;
1380;SDS011;684;48.342;10.096;2023-07-13T14:58:07;8.50;;;2.30;;
1380;SDS011;684;48.342;10.096;2023-07-13T15:00:36;4.60;;;2.23;;
1380;SDS011;684;48.342;10.096;2023-07-13T15:03:03;4.60;;;1.73;;
1380;SDS011;684;48.342;10.096;2023-07-13T15:05:31;7.27;;;1.70;;
1380;SDS011;684;48.342;10.096;2023-07-13T15:07:59;5.23;;;1.90;;
1380;SDS011;684;48.342;10.096;2023-07-13T15:10:27;6.10;;;1.83;;
1380;SDS011;684;48.342;10.096;2023-07-13T15:12:57;5.43;;;1.37;;
1380;SDS011;684;48.342;10.096;2023-07-13T15:15:26;4.87;;;1.90;;
1380;SDS011;684;48.342;10.096;2023-07-13T15:17:55;5.57;;;1.90;;
1380;SDS011;684;48.342;10.096;2023-07-13T15:20:25;5.20;;;2.03;;
1380;SDS011;684;48.342;10.096;2023-07-13T15:22:54;4.97;;;1.77;;
1380;SDS011;684;48.342;10.096;2023-07-13T15:25:22;7.03;;;2.27;;
1380;SDS011;684;48.342;10.096;2023-07-13T15:27:50;9.00;;;2.00;;
1380;SDS011;684;48.342;10.096;2023-07-13T15:30:17;5.50;;;1.70;;